sensor_id;sensor_type;location;lat;lon;timestamp;P1;durP1;ratioP1;P2;durP2;ratioP2
15177;SDS011;7689;53.612;-2.416;2022-09-09T00:01:40;12.63;;;9.65;;
15177;SDS011;7689;53.612;-2.416;2022-09-09T00:04:17;10.98;;;9.68;;
15177;SDS011;7689;53.612;-2.416;2022-09-09T00:06:50;8.30;;;7.32;;
15177;SDS011;7689;53.612;-2.416;2022-09-09T00:09:45;8.25;;;6.85;;
15177;SDS011;7689;53.612;-2.416;2022-09-09T00:15:26;7.35;;;6.65;;
15177;SDS011;7689;53.612;-2.416;2022-09-09T00:18:17;7.80;;;7.03;;
15177;SDS011;7689;53.612;-2.416;2022-09-09T00:20:47;7.70;;;7.00;;
15177;SDS011;7689;53.612;-2.416;2022-09-09T00:23:34;8.43;;;7.60;;
15177;SDS011;7689;53.612;-2.416;2022-09-09T00:28:55;10.25;;;8.27;;
15177;SDS011;7689;53.612;-2.416;2022-09-09T00:31:42;10.38;;;8.48;;
15177;SDS011;7689;53.612;-2.416;2022-09-09T00:34:16;11.52;;;9.10;;
15177;SDS011;7689;53.612;-2.416;2022-09-09T00:36:46;14.40;;;9.55;;
15177;SDS011;7689;53.612;-2.416;2022-09-09T00:39:25;13.82;;;10.73;;
15177;SDS011;7689;53.612;-2.416;2022-09-09T00:42:17;14.00;;;10.70;;
15177;SDS011;7689;53.612;-2.416;2022-09-09T00:58:42;8.52;;;7.60;;
15177;SDS011;7689;53.612;-2.416;2022-09-09T01:01:15;9.02;;;7.93;;
15177;SDS011;7689;53.612;-2.416;2022-09-09T01:06:22;9.45;;;8.48;;
15177;SDS011;7689;53.612;-2.416;2022-09-09T01:14:14;8.20;;;7.40;;
15177;SDS011;7689;53.612;-2.416;2022-09-09T01:16:56;10.75;;;8.73;;
15177;SDS011;7689;53.612;-2.416;2022-09-09T01:20:27;10.38;;;9.27;;
15177;SDS011;7689;53.612;-2.416;2022-09-09T01:28:16;19.23;;;10.05;;
15177;SDS011;7689;53.612;-2.416;2022-09-09T01:30:50;12.40;;;10.40;;
15177;SDS011;7689;53.612;-2.416;2022-09-09T01:33:16;12.15;;;10.50;;
15177;SDS011;7689;53.612;-2.416;2022-09-09T01:38:30;14.85;;;12.50;;
15177;SDS011;7689;53.612;-2.416;2022-09-09T01:40:57;13.80;;;12.18;;
15177;SDS011;7689;53.612;-2.416;2022-09-09T01:43:23;16.25;;;12.30;;
15177;SDS011;7689;53.612;-2.416;2022-09-09T01:45:51;15.43;;;12.90;;
15177;SDS011;7689;53.612;-2.416;2022-09-09T01:48:19;15.45;;;12.48;;
15177;SDS011;7689;53.612;-2.416;2022-09-09T01:50:47;14.77;;;12.15;;
15177;SDS011;7689;53.612;-2.416;2022-09-09T01:53:13;13.45;;;12.02;;
15177;SDS011;7689;53.612;-2.416;2022-09-09T01:55:43;13.02;;;11.60;;
15177;SDS011;7689;53.612;-2.416;2022-09-09T01:58:20;14.90;;;11.13;;
15177;SDS011;7689;53.612;-2.416;2022-09-09T02:01:17;10.98;;;9.45;;
15177;SDS011;7689;53.612;-2.416;2022-09-09T02:03:47;13.45;;;10.25;;
15177;SDS011;7689;53.612;-2.416;2022-09-09T02:09:00;11.07;;;9.10;;
15177;SDS011;7689;53.612;-2.416;2022-09-09T02:11:29;12.20;;;10.60;;
15177;SDS011;7689;53.612;-2.416;2022-09-09T02:14:05;16.55;;;10.30;;
15177;SDS011;7689;53.612;-2.416;2022-09-09T02:16:42;13.18;;;10.52;;
15177;SDS011;7689;53.612;-2.416;2022-09-09T02:19:20;11.13;;;10.02;;
15177;SDS011;7689;53.612;-2.416;2022-09-09T02:21:56;11.15;;;9.30;;
15177;SDS011;7689;53.612;-2.416;2022-09-09T02:24:24;11.35;;;10.23;;
15177;SDS011;7689;53.612;-2.416;2022-09-09T02:26:52;11.48;;;10.20;;
15177;SDS011;7689;53.612;-2.416;2022-09-09T02:29:26;11.80;;;10.60;;
15177;SDS011;7689;53.612;-2.416;2022-09-09T02:31:55;12.57;;;9.80;;
15177;SDS011;7689;53.612;-2.416;2022-09-09T02:34:24;11.07;;;9.90;;
15177;SDS011;7689;53.612;-2.416;2022-09-09T02:36:52;9.93;;;9.00;;
15177;SDS011;7689;53.612;-2.416;2022-09-09T02:39:20;13.18;;;8.85;;
15177;SDS011;7689;53.612;-2.416;2022-09-09T02:41:45;10.15;;;8.93;;
15177;SDS011;7689;53.612;-2.416;2022-09-09T02:44:13;10.23;;;8.65;;
15177;SDS011;7689;53.612;-2.416;2022-09-09T02:52:22;11.70;;;9.25;;
15177;SDS011;7689;53.612;-2.416;2022-09-09T02:54:58;10.27;;;8.77;;
15177;SDS011;7689;53.612;-2.416;2022-09-09T02:57:30;9.77;;;8.88;;
15177;SDS011;7689;53.612;-2.416;2022-09-09T02:59:57;14.25;;;9.07;;
15177;SDS011;7689;53.612;-2.416;2022-09-09T03:02:24;10.00;;;8.10;;
15177;SDS011;7689;53.612;-2.416;2022-09-09T03:04:50;9.95;;;7.78;;
15177;SDS011;7689;53.612;-2.416;2022-09-09T03:07:17;9.38;;;7.63;;
15177;SDS011;7689;53.612;-2.416;2022-09-09T03:09:43;12.18;;;8.57;;
15177;SDS011;7689;53.612;-2.416;2022-09-09T03:12:09;11.73;;;9.35;;
15177;SDS011;7689;53.612;-2.416;2022-09-09T03:14:36;11.43;;;8.30;;
15177;SDS011;7689;53.612;-2.416;2022-09-09T03:17:03;8.80;;;7.50;;
15177;SDS011;7689;53.612;-2.416;2022-09-09T03:19:29;8.13;;;7.13;;
15177;SDS011;7689;53.612;-2.416;2022-09-09T03:21:56;15.45;;;9.32;;
15177;SDS011;7689;53.612;-2.416;2022-09-09T03:24:23;10.45;;;8.88;;
15177;SDS011;7689;53.612;-2.416;2022-09-09T03:26:49;13.27;;;9.82;;
15177;SDS011;7689;53.612;-2.416;2022-09-09T03:29:15;13.15;;;10.63;;
15177;SDS011;7689;53.612;-2.416;2022-09-09T03:31:42;15.23;;;11.65;;
15177;SDS011;7689;53.612;-2.416;2022-09-09T03:34:07;13.38;;;11.25;;
15177;SDS011;7689;53.612;-2.416;2022-09-09T03:36:33;13.25;;;11.80;;
15177;SDS011;7689;53.612;-2.416;2022-09-09T03:38:59;12.95;;;10.73;;
15177;SDS011;7689;53.612;-2.416;2022-09-09T03:41:25;13.30;;;11.40;;
15177;SDS011;7689;53.612;-2.416;2022-09-09T03:43:51;12.95;;;11.48;;
15177;SDS011;7689;53.612;-2.416;2022-09-09T03:46:18;13.02;;;11.15;;
15177;SDS011;7689;53.612;-2.416;2022-09-09T03:48:45;15.73;;;9.98;;
15177;SDS011;7689;53.612;-2.416;2022-09-09T03:51:11;11.65;;;10.45;;
15177;SDS011;7689;53.612;-2.416;2022-09-09T03:53:37;11.82;;;10.30;;
15177;SDS011;7689;53.612;-2.416;2022-09-09T03:56:03;11.65;;;10.10;;
15177;SDS011;7689;53.612;-2.416;2022-09-09T03:58:31;12.82;;;10.75;;
15177;SDS011;7689;53.612;-2.416;2022-09-09T04:01:05;12.95;;;10.27;;
15177;SDS011;7689;53.612;-2.416;2022-09-09T04:03:33;12.18;;;10.63;;
15177;SDS011;7689;53.612;-2.416;2022-09-09T04:06:00;12.68;;;10.85;;
15177;SDS011;7689;53.612;-2.416;2022-09-09T04:08:28;16.73;;;11.90;;
15177;SDS011;7689;53.612;-2.416;2022-09-09T04:10:56;13.65;;;11.38;;
15177;SDS011;7689;53.612;-2.416;2022-09-09T04:13:22;12.73;;;11.38;;
15177;SDS011;7689;53.612;-2.416;2022-09-09T04:15:56;14.85;;;12.63;;
15177;SDS011;7689;53.612;-2.416;2022-09-09T04:18:23;17.02;;;12.48;;
15177;SDS011;7689;53.612;-2.416;2022-09-09T04:20:51;14.65;;;11.98;;
15177;SDS011;7689;53.612;-2.416;2022-09-09T04:23:18;18.00;;;11.68;;
15177;SDS011;7689;53.612;-2.416;2022-09-09T04:25:48;17.02;;;12.13;;
15177;SDS011;7689;53.612;-2.416;2022-09-09T04:28:16;14.35;;;11.32;;
15177;SDS011;7689;53.612;-2.416;2022-09-09T04:30:42;13.57;;;12.13;;
15177;SDS011;7689;53.612;-2.416;2022-09-09T04:33:09;13.25;;;11.95;;
15177;SDS011;7689;53.612;-2.416;2022-09-09T04:35:35;13.02;;;11.27;;
15177;SDS011;7689;53.612;-2.416;2022-09-09T04:38:01;12.57;;;11.27;;
15177;SDS011;7689;53.612;-2.416;2022-09-09T04:40:28;12.73;;;11.15;;
15177;SDS011;7689;53.612;-2.416;2022-09-09T04:42:54;16.20;;;10.75;;
15177;SDS011;7689;53.612;-2.416;2022-09-09T04:45:22;12.32;;;10.20;;
15177;SDS011;7689;53.612;-2.416;2022-09-09T04:47:48;9.75;;;8.85;;
15177;SDS011;7689;53.612;-2.416;2022-09-09T04:50:14;12.13;;;9.57;;
15177;SDS011;7689;53.612;-2.416;2022-09-09T04:52:40;10.05;;;8.98;;
15177;SDS011;7689;53.612;-2.416;2022-09-09T04:55:06;9.90;;;8.85;;
15177;SDS011;7689;53.612;-2.416;2022-09-09T04:57:32;11.50;;;8.30;;
15177;SDS011;7689;53.612;-2.416;2022-09-09T04:59:59;12.48;;;8.57;;
15177;SDS011;7689;53.612;-2.416;2022-09-09T05:02:25;10.07;;;8.85;;
15177;SDS011;7689;53.612;-2.416;2022-09-09T05:04:51;10.38;;;9.38;;
15177;SDS011;7689;53.612;-2.416;2022-09-09T05:07:17;10.98;;;9.95;;
15177;SDS011;7689;53.612;-2.416;2022-09-09T05:09:43;11.95;;;10.05;;
15177;SDS011;7689;53.612;-2.416;2022-09-09T05:12:10;10.32;;;9.25;;
15177;SDS011;7689;53.612;-2.416;2022-09-09T05:14:36;10.18;;;9.10;;
15177;SDS011;7689;53.612;-2.416;2022-09-09T05:17:02;11.70;;;9.20;;
15177;SDS011;7689;53.612;-2.416;2022-09-09T05:19:28;10.82;;;8.25;;
15177;SDS011;7689;53.612;-2.416;2022-09-09T05:21:56;14.23;;;8.38;;
15177;SDS011;7689;53.612;-2.416;2022-09-09T05:24:21;8.23;;;7.38;;
15177;SDS011;7689;53.612;-2.416;2022-09-09T05:26:48;7.60;;;6.85;;
15177;SDS011;7689;53.612;-2.416;2022-09-09T05:29:14;8.00;;;6.63;;
15177;SDS011;7689;53.612;-2.416;2022-09-09T05:31:39;8.35;;;7.55;;
15177;SDS011;7689;53.612;-2.416;2022-09-09T05:34:06;11.07;;;9.00;;
15177;SDS011;7689;53.612;-2.416;2022-09-09T05:36:31;12.15;;;9.57;;
15177;SDS011;7689;53.612;-2.416;2022-09-09T05:38:57;12.40;;;8.93;;
15177;SDS011;7689;53.612;-2.416;2022-09-09T05:41:23;9.95;;;8.95;;
15177;SDS011;7689;53.612;-2.416;2022-09-09T05:43:48;11.93;;;8.20;;
15177;SDS011;7689;53.612;-2.416;2022-09-09T05:46:15;7.55;;;6.72;;
15177;SDS011;7689;53.612;-2.416;2022-09-09T05:48:45;11.52;;;7.13;;
15177;SDS011;7689;53.612;-2.416;2022-09-09T05:51:13;8.57;;;7.20;;
15177;SDS011;7689;53.612;-2.416;2022-09-09T05:53:43;6.72;;;6.05;;
15177;SDS011;7689;53.612;-2.416;2022-09-09T05:58:37;6.68;;;6.00;;
15177;SDS011;7689;53.612;-2.416;2022-09-09T06:01:07;6.75;;;5.70;;
15177;SDS011;7689;53.612;-2.416;2022-09-09T06:03:35;6.85;;;6.18;;
15177;SDS011;7689;53.612;-2.416;2022-09-09T06:06:02;6.60;;;6.00;;
15177;SDS011;7689;53.612;-2.416;2022-09-09T06:08:35;9.20;;;6.07;;
15177;SDS011;7689;53.612;-2.416;2022-09-09T06:11:04;7.13;;;6.40;;
15177;SDS011;7689;53.612;-2.416;2022-09-09T06:13:31;7.95;;;6.20;;
15177;SDS011;7689;53.612;-2.416;2022-09-09T06:15:57;6.85;;;6.13;;
15177;SDS011;7689;53.612;-2.416;2022-09-09T06:18:24;9.00;;;6.40;;
15177;SDS011;7689;53.612;-2.416;2022-09-09T06:20:58;7.10;;;6.15;;
15177;SDS011;7689;53.612;-2.416;2022-09-09T06:23:25;9.95;;;6.13;;
15177;SDS011;7689;53.612;-2.416;2022-09-09T06:26:00;6.72;;;6.13;;
15177;SDS011;7689;53.612;-2.416;2022-09-09T06:28:36;8.07;;;5.75;;
15177;SDS011;7689;53.612;-2.416;2022-09-09T06:31:06;8.80;;;5.75;;
15177;SDS011;7689;53.612;-2.416;2022-09-09T06:33:34;8.15;;;6.20;;
15177;SDS011;7689;53.612;-2.416;2022-09-09T06:36:03;6.78;;;5.13;;
15177;SDS011;7689;53.612;-2.416;2022-09-09T06:38:29;9.85;;;6.10;;
15177;SDS011;7689;53.612;-2.416;2022-09-09T06:40:55;7.90;;;5.40;;
15177;SDS011;7689;53.612;-2.416;2022-09-09T06:43:22;7.95;;;6.07;;
15177;SDS011;7689;53.612;-2.416;2022-09-09T06:45:55;7.93;;;5.65;;
15177;SDS011;7689;53.612;-2.416;2022-09-09T06:48:26;8.95;;;6.72;;
15177;SDS011;7689;53.612;-2.416;2022-09-09T06:53:41;9.77;;;6.50;;
15177;SDS011;7689;53.612;-2.416;2022-09-09T06:58:43;6.07;;;5.53;;
15177;SDS011;7689;53.612;-2.416;2022-09-09T07:01:11;5.80;;;5.30;;
15177;SDS011;7689;53.612;-2.416;2022-09-09T07:03:41;8.85;;;5.70;;
15177;SDS011;7689;53.612;-2.416;2022-09-09T07:06:08;7.47;;;6.03;;
15177;SDS011;7689;53.612;-2.416;2022-09-09T07:08:42;10.23;;;6.05;;
15177;SDS011;7689;53.612;-2.416;2022-09-09T07:11:08;8.18;;;5.43;;
15177;SDS011;7689;53.612;-2.416;2022-09-09T07:13:36;7.45;;;6.22;;
15177;SDS011;7689;53.612;-2.416;2022-09-09T07:16:06;8.30;;;6.40;;
15177;SDS011;7689;53.612;-2.416;2022-09-09T07:18:33;8.60;;;6.20;;
15177;SDS011;7689;53.612;-2.416;2022-09-09T07:20:59;8.40;;;5.78;;
15177;SDS011;7689;53.612;-2.416;2022-09-09T07:23:27;8.10;;;6.13;;
15177;SDS011;7689;53.612;-2.416;2022-09-09T07:25:53;8.07;;;5.63;;
15177;SDS011;7689;53.612;-2.416;2022-09-09T07:28:19;6.15;;;5.55;;
15177;SDS011;7689;53.612;-2.416;2022-09-09T07:30:58;5.43;;;4.63;;
15177;SDS011;7689;53.612;-2.416;2022-09-09T07:33:27;7.57;;;5.45;;
15177;SDS011;7689;53.612;-2.416;2022-09-09T07:36:01;7.20;;;5.20;;
15177;SDS011;7689;53.612;-2.416;2022-09-09T07:38:32;11.40;;;6.00;;
15177;SDS011;7689;53.612;-2.416;2022-09-09T07:41:06;8.05;;;5.85;;
15177;SDS011;7689;53.612;-2.416;2022-09-09T07:43:37;8.25;;;5.82;;
15177;SDS011;7689;53.612;-2.416;2022-09-09T07:46:04;5.88;;;5.38;;
15177;SDS011;7689;53.612;-2.416;2022-09-09T07:48:30;7.50;;;5.47;;
15177;SDS011;7689;53.612;-2.416;2022-09-09T07:51:30;5.90;;;5.35;;
15177;SDS011;7689;53.612;-2.416;2022-09-09T07:54:00;8.13;;;5.63;;
15177;SDS011;7689;53.612;-2.416;2022-09-09T07:56:28;8.82;;;5.35;;
15177;SDS011;7689;53.612;-2.416;2022-09-09T07:58:55;7.85;;;5.15;;
15177;SDS011;7689;53.612;-2.416;2022-09-09T08:01:26;5.53;;;5.00;;
15177;SDS011;7689;53.612;-2.416;2022-09-09T08:03:57;7.10;;;4.93;;
15177;SDS011;7689;53.612;-2.416;2022-09-09T08:06:25;7.65;;;4.60;;
15177;SDS011;7689;53.612;-2.416;2022-09-09T08:08:52;8.68;;;4.53;;
15177;SDS011;7689;53.612;-2.416;2022-09-09T08:11:19;8.40;;;4.40;;
15177;SDS011;7689;53.612;-2.416;2022-09-09T08:13:46;8.23;;;4.47;;
15177;SDS011;7689;53.612;-2.416;2022-09-09T08:16:16;5.47;;;3.30;;
15177;SDS011;7689;53.612;-2.416;2022-09-09T08:18:48;5.13;;;3.17;;
15177;SDS011;7689;53.612;-2.416;2022-09-09T08:21:16;4.30;;;3.40;;
15177;SDS011;7689;53.612;-2.416;2022-09-09T08:23:44;8.52;;;3.17;;
15177;SDS011;7689;53.612;-2.416;2022-09-09T08:26:12;6.88;;;3.30;;
15177;SDS011;7689;53.612;-2.416;2022-09-09T08:28:52;6.30;;;3.10;;
15177;SDS011;7689;53.612;-2.416;2022-09-09T08:31:20;5.70;;;2.80;;
15177;SDS011;7689;53.612;-2.416;2022-09-09T08:33:48;4.93;;;3.17;;
15177;SDS011;7689;53.612;-2.416;2022-09-09T08:36:15;7.43;;;3.25;;
15177;SDS011;7689;53.612;-2.416;2022-09-09T08:38:50;4.82;;;3.38;;
15177;SDS011;7689;53.612;-2.416;2022-09-09T08:52:31;5.00;;;2.70;;
15177;SDS011;7689;53.612;-2.416;2022-09-09T08:55:24;5.25;;;2.35;;
15177;SDS011;7689;53.612;-2.416;2022-09-09T08:57:54;5.72;;;2.97;;
15177;SDS011;7689;53.612;-2.416;2022-09-09T09:00:22;5.50;;;2.67;;
15177;SDS011;7689;53.612;-2.416;2022-09-09T09:05:37;6.35;;;3.28;;
15177;SDS011;7689;53.612;-2.416;2022-09-09T09:10:50;4.35;;;2.65;;
15177;SDS011;7689;53.612;-2.416;2022-09-09T09:13:19;5.10;;;2.70;;
15177;SDS011;7689;53.612;-2.416;2022-09-09T09:15:58;5.50;;;2.47;;
15177;SDS011;7689;53.612;-2.416;2022-09-09T09:18:47;6.15;;;2.58;;
15177;SDS011;7689;53.612;-2.416;2022-09-09T09:23:56;4.55;;;2.50;;
15177;SDS011;7689;53.612;-2.416;2022-09-09T09:26:23;3.10;;;2.42;;
15177;SDS011;7689;53.612;-2.416;2022-09-09T09:29:01;5.00;;;2.97;;
15177;SDS011;7689;53.612;-2.416;2022-09-09T09:31:37;4.88;;;2.60;;
15177;SDS011;7689;53.612;-2.416;2022-09-09T09:34:03;4.00;;;2.88;;
15177;SDS011;7689;53.612;-2.416;2022-09-09T09:37:01;4.28;;;2.30;;
15177;SDS011;7689;53.612;-2.416;2022-09-09T09:39:30;4.07;;;2.60;;
15177;SDS011;7689;53.612;-2.416;2022-09-09T09:42:15;6.07;;;2.03;;
15177;SDS011;7689;53.612;-2.416;2022-09-09T09:44:42;2.22;;;1.83;;
15177;SDS011;7689;53.612;-2.416;2022-09-09T09:47:12;3.88;;;2.13;;
15177;SDS011;7689;53.612;-2.416;2022-09-09T09:49:38;4.35;;;2.28;;
15177;SDS011;7689;53.612;-2.416;2022-09-09T09:52:05;4.43;;;2.33;;
15177;SDS011;7689;53.612;-2.416;2022-09-09T09:54:38;5.13;;;2.00;;
15177;SDS011;7689;53.612;-2.416;2022-09-09T09:57:10;2.85;;;2.35;;
15177;SDS011;7689;53.612;-2.416;2022-09-09T09:59:37;3.80;;;1.83;;
15177;SDS011;7689;53.612;-2.416;2022-09-09T10:05:00;3.95;;;1.95;;
15177;SDS011;7689;53.612;-2.416;2022-09-09T10:07:27;1.90;;;1.70;;
15177;SDS011;7689;53.612;-2.416;2022-09-09T10:09:55;3.05;;;2.13;;
15177;SDS011;7689;53.612;-2.416;2022-09-09T10:20:42;3.88;;;2.05;;
15177;SDS011;7689;53.612;-2.416;2022-09-09T10:26:19;3.83;;;2.00;;
15177;SDS011;7689;53.612;-2.416;2022-09-09T10:35:09;1.48;;;1.45;;
15177;SDS011;7689;53.612;-2.416;2022-09-09T10:38:10;2.35;;;2.10;;
15177;SDS011;7689;53.612;-2.416;2022-09-09T10:40:58;3.40;;;2.10;;
15177;SDS011;7689;53.612;-2.416;2022-09-09T10:43:39;5.60;;;2.75;;
15177;SDS011;7689;53.612;-2.416;2022-09-09T10:49:25;2.00;;;1.88;;
15177;SDS011;7689;53.612;-2.416;2022-09-09T10:57:03;2.42;;;2.22;;
15177;SDS011;7689;53.612;-2.416;2022-09-09T10:59:40;7.32;;;2.95;;
15177;SDS011;7689;53.612;-2.416;2022-09-09T11:02:15;4.88;;;2.67;;
15177;SDS011;7689;53.612;-2.416;2022-09-09T11:04:51;3.40;;;2.65;;
15177;SDS011;7689;53.612;-2.416;2022-09-09T11:08:17;3.47;;;2.25;;
15177;SDS011;7689;53.612;-2.416;2022-09-09T11:10:44;3.35;;;2.40;;
15177;SDS011;7689;53.612;-2.416;2022-09-09T11:18:58;4.53;;;2.03;;
15177;SDS011;7689;53.612;-2.416;2022-09-09T11:21:45;3.35;;;2.08;;
15177;SDS011;7689;53.612;-2.416;2022-09-09T11:24:15;2.53;;;2.00;;
15177;SDS011;7689;53.612;-2.416;2022-09-09T11:27:35;2.92;;;2.10;;
15177;SDS011;7689;53.612;-2.416;2022-09-09T11:32:59;2.67;;;1.85;;
15177;SDS011;7689;53.612;-2.416;2022-09-09T11:38:55;6.45;;;3.45;;
15177;SDS011;7689;53.612;-2.416;2022-09-09T11:41:16;5.70;;;3.70;;
15177;SDS011;7689;53.612;-2.416;2022-09-09T11:43:48;6.47;;;3.17;;
15177;SDS011;7689;53.612;-2.416;2022-09-09T11:46:17;5.18;;;3.25;;
15177;SDS011;7689;53.612;-2.416;2022-09-09T11:49:00;4.30;;;3.28;;
15177;SDS011;7689;53.612;-2.416;2022-09-09T11:51:28;6.28;;;3.97;;
15177;SDS011;7689;53.612;-2.416;2022-09-09T11:53:56;4.03;;;3.63;;
15177;SDS011;7689;53.612;-2.416;2022-09-09T11:56:24;6.85;;;4.18;;
15177;SDS011;7689;53.612;-2.416;2022-09-09T11:58:57;3.67;;;3.38;;
15177;SDS011;7689;53.612;-2.416;2022-09-09T12:01:35;5.97;;;3.63;;
15177;SDS011;7689;53.612;-2.416;2022-09-09T12:06:41;5.25;;;3.65;;
15177;SDS011;7689;53.612;-2.416;2022-09-09T12:09:20;5.57;;;3.88;;
15177;SDS011;7689;53.612;-2.416;2022-09-09T12:11:52;3.83;;;3.50;;
15177;SDS011;7689;53.612;-2.416;2022-09-09T12:14:38;4.70;;;3.55;;
15177;SDS011;7689;53.612;-2.416;2022-09-09T12:17:17;3.85;;;3.22;;
15177;SDS011;7689;53.612;-2.416;2022-09-09T12:19:45;5.55;;;3.70;;
15177;SDS011;7689;53.612;-2.416;2022-09-09T12:22:35;4.60;;;4.28;;
15177;SDS011;7689;53.612;-2.416;2022-09-09T12:33:36;4.22;;;3.83;;
15177;SDS011;7689;53.612;-2.416;2022-09-09T12:36:08;5.45;;;3.90;;
15177;SDS011;7689;53.612;-2.416;2022-09-09T12:38:40;5.80;;;4.13;;
15177;SDS011;7689;53.612;-2.416;2022-09-09T12:41:27;5.20;;;3.80;;
15177;SDS011;7689;53.612;-2.416;2022-09-09T12:44:06;4.47;;;3.60;;
15177;SDS011;7689;53.612;-2.416;2022-09-09T12:46:41;4.38;;;3.17;;
15177;SDS011;7689;53.612;-2.416;2022-09-09T12:49:42;3.40;;;3.20;;
15177;SDS011;7689;53.612;-2.416;2022-09-09T12:52:04;8.13;;;2.60;;
15177;SDS011;7689;53.612;-2.416;2022-09-09T12:54:47;2.72;;;2.53;;
15177;SDS011;7689;53.612;-2.416;2022-09-09T12:57:16;2.10;;;2.00;;
15177;SDS011;7689;53.612;-2.416;2022-09-09T12:59:43;3.60;;;2.30;;
15177;SDS011;7689;53.612;-2.416;2022-09-09T13:02:17;2.15;;;1.98;;
15177;SDS011;7689;53.612;-2.416;2022-09-09T13:04:48;2.03;;;1.92;;
15177;SDS011;7689;53.612;-2.416;2022-09-09T13:07:15;1.60;;;1.50;;
15177;SDS011;7689;53.612;-2.416;2022-09-09T13:09:42;2.15;;;1.98;;
15177;SDS011;7689;53.612;-2.416;2022-09-09T13:12:19;1.65;;;1.58;;
15177;SDS011;7689;53.612;-2.416;2022-09-09T13:14:53;3.22;;;1.90;;
15177;SDS011;7689;53.612;-2.416;2022-09-09T13:17:21;3.47;;;1.85;;
15177;SDS011;7689;53.612;-2.416;2022-09-09T13:19:54;2.67;;;2.30;;
15177;SDS011;7689;53.612;-2.416;2022-09-09T13:22:37;2.58;;;2.35;;
15177;SDS011;7689;53.612;-2.416;2022-09-09T13:27:36;1.50;;;0.98;;
15177;SDS011;7689;53.612;-2.416;2022-09-09T13:30:23;3.33;;;1.15;;
15177;SDS011;7689;53.612;-2.416;2022-09-09T13:33:00;2.10;;;1.13;;
15177;SDS011;7689;53.612;-2.416;2022-09-09T13:35:54;1.92;;;1.17;;
15177;SDS011;7689;53.612;-2.416;2022-09-09T13:38:20;4.47;;;1.70;;
15177;SDS011;7689;53.612;-2.416;2022-09-09T13:40:54;1.20;;;1.20;;
15177;SDS011;7689;53.612;-2.416;2022-09-09T13:43:29;1.83;;;1.10;;
15177;SDS011;7689;53.612;-2.416;2022-09-09T13:45:59;2.00;;;1.45;;
15177;SDS011;7689;53.612;-2.416;2022-09-09T13:48:27;1.23;;;1.10;;
15177;SDS011;7689;53.612;-2.416;2022-09-09T13:50:59;2.70;;;1.30;;
15177;SDS011;7689;53.612;-2.416;2022-09-09T13:53:26;1.67;;;1.58;;
15177;SDS011;7689;53.612;-2.416;2022-09-09T13:55:52;2.58;;;1.38;;
15177;SDS011;7689;53.612;-2.416;2022-09-09T13:58:18;1.77;;;1.52;;
15177;SDS011;7689;53.612;-2.416;2022-09-09T14:00:44;1.58;;;1.48;;
15177;SDS011;7689;53.612;-2.416;2022-09-09T14:03:11;2.17;;;1.73;;
15177;SDS011;7689;53.612;-2.416;2022-09-09T14:05:37;3.03;;;1.58;;
15177;SDS011;7689;53.612;-2.416;2022-09-09T14:08:07;1.40;;;1.30;;
15177;SDS011;7689;53.612;-2.416;2022-09-09T14:10:35;1.35;;;1.25;;
15177;SDS011;7689;53.612;-2.416;2022-09-09T14:13:02;1.70;;;1.13;;
15177;SDS011;7689;53.612;-2.416;2022-09-09T14:15:28;2.28;;;1.30;;
15177;SDS011;7689;53.612;-2.416;2022-09-09T14:17:54;2.28;;;1.30;;
15177;SDS011;7689;53.612;-2.416;2022-09-09T14:20:19;1.45;;;1.20;;
15177;SDS011;7689;53.612;-2.416;2022-09-09T14:22:45;1.50;;;1.33;;
15177;SDS011;7689;53.612;-2.416;2022-09-09T14:25:11;1.00;;;1.00;;
15177;SDS011;7689;53.612;-2.416;2022-09-09T14:27:40;1.13;;;1.10;;
15177;SDS011;7689;53.612;-2.416;2022-09-09T14:30:07;1.67;;;1.30;;
15177;SDS011;7689;53.612;-2.416;2022-09-09T14:32:33;0.90;;;0.90;;
15177;SDS011;7689;53.612;-2.416;2022-09-09T14:34:59;2.20;;;1.33;;
15177;SDS011;7689;53.612;-2.416;2022-09-09T14:37:25;1.85;;;1.23;;
15177;SDS011;7689;53.612;-2.416;2022-09-09T14:39:52;3.53;;;1.40;;
15177;SDS011;7689;53.612;-2.416;2022-09-09T14:42:18;2.25;;;1.15;;
15177;SDS011;7689;53.612;-2.416;2022-09-09T14:44:44;1.48;;;1.33;;
15177;SDS011;7689;53.612;-2.416;2022-09-09T14:47:10;3.40;;;1.63;;
15177;SDS011;7689;53.612;-2.416;2022-09-09T14:49:36;1.58;;;1.48;;
15177;SDS011;7689;53.612;-2.416;2022-09-09T14:52:02;3.28;;;1.70;;
15177;SDS011;7689;53.612;-2.416;2022-09-09T14:54:28;1.85;;;1.60;;
15177;SDS011;7689;53.612;-2.416;2022-09-09T14:56:55;2.88;;;1.55;;
15177;SDS011;7689;53.612;-2.416;2022-09-09T14:59:21;2.97;;;1.33;;
15177;SDS011;7689;53.612;-2.416;2022-09-09T15:01:47;1.30;;;1.30;;
15177;SDS011;7689;53.612;-2.416;2022-09-09T15:04:13;1.55;;;1.50;;
15177;SDS011;7689;53.612;-2.416;2022-09-09T15:06:45;2.03;;;1.70;;
15177;SDS011;7689;53.612;-2.416;2022-09-09T15:09:13;2.22;;;1.80;;
15177;SDS011;7689;53.612;-2.416;2022-09-09T15:11:39;1.35;;;1.30;;
15177;SDS011;7689;53.612;-2.416;2022-09-09T15:14:05;1.55;;;1.45;;
15177;SDS011;7689;53.612;-2.416;2022-09-09T15:16:32;2.22;;;1.92;;
15177;SDS011;7689;53.612;-2.416;2022-09-09T15:18:59;2.60;;;1.50;;
15177;SDS011;7689;53.612;-2.416;2022-09-09T15:21:27;1.85;;;1.50;;
15177;SDS011;7689;53.612;-2.416;2022-09-09T15:23:54;1.40;;;1.40;;
15177;SDS011;7689;53.612;-2.416;2022-09-09T15:26:21;1.73;;;1.60;;
15177;SDS011;7689;53.612;-2.416;2022-09-09T15:28:47;1.70;;;1.60;;
15177;SDS011;7689;53.612;-2.416;2022-09-09T15:31:21;3.03;;;1.73;;
15177;SDS011;7689;53.612;-2.416;2022-09-09T15:33:52;1.70;;;1.60;;
15177;SDS011;7689;53.612;-2.416;2022-09-09T15:36:26;2.05;;;1.70;;
15177;SDS011;7689;53.612;-2.416;2022-09-09T15:39:02;1.85;;;1.50;;
15177;SDS011;7689;53.612;-2.416;2022-09-09T15:41:29;1.75;;;1.65;;
15177;SDS011;7689;53.612;-2.416;2022-09-09T15:43:58;2.55;;;1.48;;
15177;SDS011;7689;53.612;-2.416;2022-09-09T15:46:29;1.60;;;1.50;;
15177;SDS011;7689;53.612;-2.416;2022-09-09T15:49:06;2.20;;;1.80;;
15177;SDS011;7689;53.612;-2.416;2022-09-09T15:51:36;1.20;;;1.20;;
15177;SDS011;7689;53.612;-2.416;2022-09-09T15:54:03;4.60;;;1.85;;
15177;SDS011;7689;53.612;-2.416;2022-09-09T15:56:30;2.88;;;1.65;;
15177;SDS011;7689;53.612;-2.416;2022-09-09T15:58:57;1.65;;;1.55;;
15177;SDS011;7689;53.612;-2.416;2022-09-09T16:01:24;1.60;;;1.50;;
15177;SDS011;7689;53.612;-2.416;2022-09-09T16:03:51;2.30;;;1.65;;
15177;SDS011;7689;53.612;-2.416;2022-09-09T16:06:18;1.80;;;1.70;;
15177;SDS011;7689;53.612;-2.416;2022-09-09T16:08:46;1.70;;;1.60;;
15177;SDS011;7689;53.612;-2.416;2022-09-09T16:11:19;1.60;;;1.50;;
15177;SDS011;7689;53.612;-2.416;2022-09-09T16:13:46;1.73;;;1.63;;
15177;SDS011;7689;53.612;-2.416;2022-09-09T16:16:17;1.33;;;1.23;;
15177;SDS011;7689;53.612;-2.416;2022-09-09T16:18:47;1.13;;;1.13;;
15177;SDS011;7689;53.612;-2.416;2022-09-09T16:21:20;1.33;;;1.20;;
15177;SDS011;7689;53.612;-2.416;2022-09-09T16:23:49;1.13;;;1.13;;
15177;SDS011;7689;53.612;-2.416;2022-09-09T16:26:16;1.30;;;1.20;;
15177;SDS011;7689;53.612;-2.416;2022-09-09T16:28:43;1.15;;;1.10;;
15177;SDS011;7689;53.612;-2.416;2022-09-09T16:31:15;2.08;;;1.25;;
15177;SDS011;7689;53.612;-2.416;2022-09-09T16:33:42;1.70;;;1.40;;
15177;SDS011;7689;53.612;-2.416;2022-09-09T16:36:10;1.30;;;1.20;;
15177;SDS011;7689;53.612;-2.416;2022-09-09T16:38:37;1.45;;;1.40;;
15177;SDS011;7689;53.612;-2.416;2022-09-09T16:41:04;1.38;;;1.20;;
15177;SDS011;7689;53.612;-2.416;2022-09-09T16:43:31;1.23;;;0.90;;
15177;SDS011;7689;53.612;-2.416;2022-09-09T16:45:58;1.30;;;1.30;;
15177;SDS011;7689;53.612;-2.416;2022-09-09T16:48:25;0.90;;;0.90;;
15177;SDS011;7689;53.612;-2.416;2022-09-09T16:51:00;1.25;;;1.25;;
15177;SDS011;7689;53.612;-2.416;2022-09-09T16:53:27;1.95;;;1.10;;
15177;SDS011;7689;53.612;-2.416;2022-09-09T16:55:53;1.00;;;0.90;;
15177;SDS011;7689;53.612;-2.416;2022-09-09T16:58:18;1.77;;;0.90;;
15177;SDS011;7689;53.612;-2.416;2022-09-09T17:00:44;1.23;;;1.00;;
15177;SDS011;7689;53.612;-2.416;2022-09-09T17:03:14;1.55;;;1.17;;
15177;SDS011;7689;53.612;-2.416;2022-09-09T17:05:40;1.40;;;0.95;;
15177;SDS011;7689;53.612;-2.416;2022-09-09T17:08:06;1.05;;;1.05;;
15177;SDS011;7689;53.612;-2.416;2022-09-09T17:10:32;0.90;;;0.90;;